Hauptseite
METAR-TAF:

METAR-TAF

Flughäfen :

Flughafen Luxemburg

Luxemburg, Luxemburg

Breite: 49-37N, Länge: 006-13E, Höhe: 376 m

Beobachtung

Neuester Wetterbericht von vor 30 Minuten, um 07:20 UTC
Wind 3 kt aus Süd, variierte zwischen Südost und Süd/Südwest
Temperatur 18°C
Luftfeuchtigkeit 77%
Luftdruck 1020 hPa
Sichtweite 10 km oder mehr
keine Wolken unter 1500 m und keine Kumulonimbus oder Gewitterwolken

METAR: ELLX 190720Z 17003KT 130V210 CAVOK 18/14 Q1020 NOSIG

Zeit: 09:50 (07:50 UTC)

Prognose

Neuester Wetterbericht von vor 2 Stunden und 50 Minuten, um 05:00 UTC
Gültige Prognose vom 19 um 06 UTC bis 20 um 12 UTC
Wind 4 kt aus Süd/Südwest
Sichtweite 10 km oder mehr
keine Wolken unter 1500 m und keine Kumulonimbus oder Gewitterwolken
Zeitweise
vom 19 um 12 UTC bis 19 um 18 UTC
Wind 10 kt aus West/Südwest, Böen bis zu 22 kt

TAF: ELLX 190500Z 1906/2012 21004KT CAVOK TEMPO 1912/1918 24010G22KT

Wetterbeobachtungen und Prognosen von mehr als 4000 Flughäfen (METAR und TAF Bericht).

Die verfügbaren Stationen werden durch gelbe und rote Markierungen auf der Karte dargestellt.

Führen Sie die Maus auf sie, um den Namen der Station zu sehen.

Darauf klicken, um die Beobachtung von Wetterbeobachtungen und Prognosen zu sehen.

Um die Karte zu ändern : klicken Sie auf den grünen Tasten mit einem schwarzen Kreuz Zum Vergrößern, auf den grünen Button mit einem Gedankenstrich zu verkleinern, oder auf die grünen Pfeile für benachbarte Karten.


METAR-TAF: